Terminal Aerodrome Forecast
Issued by NWS

Home | Current Version | Previous Version | Text Only | Print | Product List | Glossary On
Versions: 1 2 3 4 5 6 7 8 9 10 11 12 13 14 15 16 17 18 19 20 21 22
000
FTUS41 KBOX 261743 AAD
TAFFMH
TAF AMD
KFMH 261743Z 2618/2718 18005KT P6SM BKN015
     FM262000 18006KT 3SM BR SCT020
     FM262300 17005KT 1SM BR BKN090
     FM270100 18004KT 1/2SM FG BKN003
     FM270300 VRB03KT 1/4SM FG OVC003
     FM271100 14004KT 3/4SM BR OVC003
     FM271600 15008KT 3SM BR BKN090=

USA.gov is the U.S. government's official web portal to all federal, state and local government web resources and services.